sensor_id;sensor_type;location;lat;lon;timestamp;pressure;altitude;pressure_sealevel;temperature;humidity
77431;BME280;66498;48.564;19.272;2023-06-24T00:01:35;97632.75;;;18.78;96.19
77431;BME280;66498;48.564;19.272;2023-06-24T00:04:03;97631.16;;;18.82;96.12
77431;BME280;66498;48.564;19.272;2023-06-24T00:06:29;97635.91;;;18.96;95.44
77431;BME280;66498;48.564;19.272;2023-06-24T00:08:54;97642.03;;;18.86;96.02
77431;BME280;66498;48.564;19.272;2023-06-24T00:11:27;97640.13;;;18.91;95.38
77431;BME280;66498;48.564;19.272;2023-06-24T00:13:52;97644.69;;;18.86;93.64
77431;BME280;66498;48.564;19.272;2023-06-24T00:16:18;97655.56;;;18.95;92.86
77431;BME280;66498;48.564;19.272;2023-06-24T00:18:54;97658.28;;;18.74;93.33
77431;BME280;66498;48.564;19.272;2023-06-24T00:21:19;97658.25;;;18.89;91.90
77431;BME280;66498;48.564;19.272;2023-06-24T00:23:45;97655.06;;;18.93;92.64
77431;BME280;66498;48.564;19.272;2023-06-24T00:26:14;97651.59;;;18.87;92.80
77431;BME280;66498;48.564;19.272;2023-06-24T00:28:40;97642.75;;;19.02;92.49
77431;BME280;66498;48.564;19.272;2023-06-24T00:31:05;97640.06;;;19.12;91.01
77431;BME280;66498;48.564;19.272;2023-06-24T00:33:30;97642.16;;;19.20;90.67
77431;BME280;66498;48.564;19.272;2023-06-24T00:36:01;97646.50;;;19.06;91.47
77431;BME280;66498;48.564;19.272;2023-06-24T00:38:26;97643.03;;;19.00;91.40
77431;BME280;66498;48.564;19.272;2023-06-24T00:40:54;97643.25;;;19.19;89.76
77431;BME280;66498;48.564;19.272;2023-06-24T00:43:19;97644.53;;;19.27;88.36
77431;BME280;66498;48.564;19.272;2023-06-24T00:45:45;97640.00;;;19.27;88.47
77431;BME280;66498;48.564;19.272;2023-06-24T00:48:14;97638.72;;;19.14;89.84
77431;BME280;66498;48.564;19.272;2023-06-24T00:50:40;97642.44;;;19.13;88.73
77431;BME280;66498;48.564;19.272;2023-06-24T00:53:07;97649.94;;;19.06;88.77
77431;BME280;66498;48.564;19.272;2023-06-24T00:55:32;97646.50;;;19.06;88.99
77431;BME280;66498;48.564;19.272;2023-06-24T00:57:58;97645.94;;;19.09;87.72
77431;BME280;66498;48.564;19.272;2023-06-24T01:00:25;97645.94;;;19.04;88.15
77431;BME280;66498;48.564;19.272;2023-06-24T01:02:51;97646.25;;;19.02;87.27
77431;BME280;66498;48.564;19.272;2023-06-24T01:05:17;97646.81;;;18.89;87.64
77431;BME280;66498;48.564;19.272;2023-06-24T01:07:43;97649.81;;;18.72;89.20
77431;BME280;66498;48.564;19.272;2023-06-24T01:10:09;97653.44;;;18.97;87.97
77431;BME280;66498;48.564;19.272;2023-06-24T01:12:39;97644.38;;;19.03;85.80
77431;BME280;66498;48.564;19.272;2023-06-24T01:15:06;97639.34;;;18.96;87.74
77431;BME280;66498;48.564;19.272;2023-06-24T01:17:34;97627.16;;;18.80;88.05
77431;BME280;66498;48.564;19.272;2023-06-24T01:20:11;97631.16;;;18.82;88.17
77431;BME280;66498;48.564;19.272;2023-06-24T01:22:48;97635.13;;;18.85;87.71
77431;BME280;66498;48.564;19.272;2023-06-24T01:31:24;97621.13;;;18.43;93.30
77431;BME280;66498;48.564;19.272;2023-06-24T01:34:05;97617.13;;;18.56;93.01
77431;BME280;66498;48.564;19.272;2023-06-24T01:36:33;97613.31;;;18.83;92.47
77431;BME280;66498;48.564;19.272;2023-06-24T01:39:05;97608.75;;;18.99;92.01
77431;BME280;66498;48.564;19.272;2023-06-24T01:41:37;97609.06;;;18.87;93.70
77431;BME280;66498;48.564;19.272;2023-06-24T01:44:06;97612.56;;;18.72;94.38
77431;BME280;66498;48.564;19.272;2023-06-24T01:46:35;97618.16;;;18.76;94.62
77431;BME280;66498;48.564;19.272;2023-06-24T01:49:03;97615.75;;;18.64;93.67
77431;BME280;66498;48.564;19.272;2023-06-24T01:51:31;97604.03;;;18.85;92.00
77431;BME280;66498;48.564;19.272;2023-06-24T01:54:02;97595.53;;;18.68;93.47
77431;BME280;66498;48.564;19.272;2023-06-24T01:56:29;97591.81;;;18.79;92.82
77431;BME280;66498;48.564;19.272;2023-06-24T01:58:57;97588.63;;;18.67;93.81
77431;BME280;66498;48.564;19.272;2023-06-24T02:01:24;97589.16;;;18.79;93.68
77431;BME280;66498;48.564;19.272;2023-06-24T02:03:51;97584.97;;;18.48;95.39
77431;BME280;66498;48.564;19.272;2023-06-24T02:06:18;97582.66;;;18.31;96.58
77431;BME280;66498;48.564;19.272;2023-06-24T02:08:46;97580.25;;;18.24;97.46
77431;BME280;66498;48.564;19.272;2023-06-24T02:11:13;97590.34;;;18.32;96.72
77431;BME280;66498;48.564;19.272;2023-06-24T02:13:40;97599.13;;;18.17;96.89
77431;BME280;66498;48.564;19.272;2023-06-24T02:16:08;97598.31;;;18.17;96.68
77431;BME280;66498;48.564;19.272;2023-06-24T02:18:37;97597.03;;;17.99;97.52
77431;BME280;66498;48.564;19.272;2023-06-24T02:21:04;97596.22;;;18.09;96.37
77431;BME280;66498;48.564;19.272;2023-06-24T02:23:31;97592.78;;;18.08;96.14
77431;BME280;66498;48.564;19.272;2023-06-24T02:25:57;97592.47;;;18.25;94.72
77431;BME280;66498;48.564;19.272;2023-06-24T02:28:24;97584.75;;;18.24;94.42
77431;BME280;66498;48.564;19.272;2023-06-24T02:30:51;97579.75;;;18.07;95.25
77431;BME280;66498;48.564;19.272;2023-06-24T02:33:16;97587.75;;;17.81;97.19
77431;BME280;66498;48.564;19.272;2023-06-24T02:35:42;97592.50;;;17.89;97.55
77431;BME280;66498;48.564;19.272;2023-06-24T02:38:10;97592.25;;;17.91;96.68
77431;BME280;66498;48.564;19.272;2023-06-24T02:40:36;97593.53;;;17.63;97.38
77431;BME280;66498;48.564;19.272;2023-06-24T02:43:01;97602.56;;;17.62;97.11
77431;BME280;66498;48.564;19.272;2023-06-24T02:45:28;97609.00;;;17.81;97.29
77431;BME280;66498;48.564;19.272;2023-06-24T02:47:54;97603.13;;;17.79;96.34
77431;BME280;66498;48.564;19.272;2023-06-24T02:50:21;97601.00;;;18.07;95.54
77431;BME280;66498;48.564;19.272;2023-06-24T02:52:48;97593.53;;;18.19;95.38
77431;BME280;66498;48.564;19.272;2023-06-24T02:55:14;97599.19;;;17.87;97.34
77431;BME280;66498;48.564;19.272;2023-06-24T02:57:40;97593.84;;;17.66;98.20
77431;BME280;66498;48.564;19.272;2023-06-24T03:00:07;97596.22;;;17.58;99.91
77431;BME280;66498;48.564;19.272;2023-06-24T03:02:39;97595.69;;;17.50;100.00
77431;BME280;66498;48.564;19.272;2023-06-24T03:05:06;97600.19;;;17.50;100.00
77431;BME280;66498;48.564;19.272;2023-06-24T03:07:32;97601.78;;;17.56;100.00
77431;BME280;66498;48.564;19.272;2023-06-24T03:10:02;97606.03;;;17.67;99.54
77431;BME280;66498;48.564;19.272;2023-06-24T03:12:28;97604.44;;;17.51;98.73
77431;BME280;66498;48.564;19.272;2023-06-24T03:14:54;97599.41;;;17.60;98.20
77431;BME280;66498;48.564;19.272;2023-06-24T03:17:20;97614.00;;;17.62;98.44
77431;BME280;66498;48.564;19.272;2023-06-24T03:19:45;97599.16;;;17.82;98.00
77431;BME280;66498;48.564;19.272;2023-06-24T03:22:11;97603.16;;;17.94;97.87
77431;BME280;66498;48.564;19.272;2023-06-24T03:24:36;97614.84;;;18.04;97.25
77431;BME280;66498;48.564;19.272;2023-06-24T03:27:02;97615.56;;;18.35;95.07
77431;BME280;66498;48.564;19.272;2023-06-24T03:29:27;97611.53;;;18.48;95.70
77431;BME280;66498;48.564;19.272;2023-06-24T03:31:53;97605.75;;;18.25;97.72
77431;BME280;66498;48.564;19.272;2023-06-24T03:34:19;97603.63;;;18.17;98.60
77431;BME280;66498;48.564;19.272;2023-06-24T03:36:44;97612.16;;;18.09;98.97
77431;BME280;66498;48.564;19.272;2023-06-24T03:39:10;97620.13;;;18.14;98.87
77431;BME280;66498;48.564;19.272;2023-06-24T03:41:35;97619.31;;;18.24;97.96
77431;BME280;66498;48.564;19.272;2023-06-24T03:44:01;97630.22;;;17.96;96.95
77431;BME280;66498;48.564;19.272;2023-06-24T03:46:26;97622.53;;;18.05;96.69
77431;BME280;66498;48.564;19.272;2023-06-24T03:48:57;97624.13;;;18.01;96.75
77431;BME280;66498;48.564;19.272;2023-06-24T03:51:23;97621.72;;;18.00;97.20
77431;BME280;66498;48.564;19.272;2023-06-24T03:53:48;97625.41;;;18.29;95.89
77431;BME280;66498;48.564;19.272;2023-06-24T03:56:14;97632.53;;;18.59;94.22
77431;BME280;66498;48.564;19.272;2023-06-24T03:58:40;97639.19;;;18.52;94.72
77431;BME280;66498;48.564;19.272;2023-06-24T04:01:05;97631.41;;;18.71;94.42
77431;BME280;66498;48.564;19.272;2023-06-24T04:03:31;97637.81;;;18.75;94.10
77431;BME280;66498;48.564;19.272;2023-06-24T04:05:57;97637.50;;;18.86;93.28
77431;BME280;66498;48.564;19.272;2023-06-24T04:08:23;97644.19;;;18.68;93.07
77431;BME280;66498;48.564;19.272;2023-06-24T04:10:50;97644.69;;;18.86;92.27
77431;BME280;66498;48.564;19.272;2023-06-24T04:13:16;97640.22;;;18.66;91.86
77431;BME280;66498;48.564;19.272;2023-06-24T04:15:41;97643.91;;;18.70;93.72
77431;BME280;66498;48.564;19.272;2023-06-24T04:18:08;97651.06;;;18.90;92.98
77431;BME280;66498;48.564;19.272;2023-06-24T04:20:33;97658.00;;;18.81;94.12
77431;BME280;66498;48.564;19.272;2023-06-24T04:22:59;97649.28;;;18.75;94.54
77431;BME280;66498;48.564;19.272;2023-06-24T04:25:25;97642.59;;;18.83;93.99
77431;BME280;66498;48.564;19.272;2023-06-24T04:27:51;97644.38;;;18.98;94.17
77431;BME280;66498;48.564;19.272;2023-06-24T04:30:17;97646.25;;;19.02;93.34
77431;BME280;66498;48.564;19.272;2023-06-24T04:32:42;97655.22;;;19.11;94.14
77431;BME280;66498;48.564;19.272;2023-06-24T04:35:09;97657.22;;;19.40;92.98
77431;BME280;66498;48.564;19.272;2023-06-24T04:37:34;97658.50;;;19.43;92.79
77431;BME280;66498;48.564;19.272;2023-06-24T04:40:00;97656.16;;;19.41;91.82
77431;BME280;66498;48.564;19.272;2023-06-24T04:42:25;97655.13;;;19.81;92.14
77431;BME280;66498;48.564;19.272;2023-06-24T04:44:51;97657.41;;;19.54;90.06
77431;BME280;66498;48.564;19.272;2023-06-24T04:47:17;97658.28;;;19.39;91.58
77431;BME280;66498;48.564;19.272;2023-06-24T04:49:43;97668.91;;;19.44;92.17
77431;BME280;66498;48.564;19.272;2023-06-24T04:52:11;97674.09;;;19.70;91.58
77431;BME280;66498;48.564;19.272;2023-06-24T04:54:36;97679.72;;;19.68;91.92
77431;BME280;66498;48.564;19.272;2023-06-24T04:57:02;97678.41;;;19.60;89.40
77431;BME280;66498;48.564;19.272;2023-06-24T04:59:28;97675.81;;;19.50;88.95
77431;BME280;66498;48.564;19.272;2023-06-24T05:01:53;97682.66;;;19.61;90.09
77431;BME280;66498;48.564;19.272;2023-06-24T05:04:19;97684.53;;;19.56;90.33
77431;BME280;66498;48.564;19.272;2023-06-24T05:06:44;97690.69;;;19.51;91.20
77431;BME280;66498;48.564;19.272;2023-06-24T05:09:10;97691.97;;;19.59;91.47
77431;BME280;66498;48.564;19.272;2023-06-24T05:11:40;97691.44;;;19.67;89.19
77431;BME280;66498;48.564;19.272;2023-06-24T05:14:05;97690.66;;;19.56;87.03
77431;BME280;66498;48.564;19.272;2023-06-24T05:16:31;97692.16;;;19.78;88.00
77431;BME280;66498;48.564;19.272;2023-06-24T05:18:56;97690.88;;;19.70;88.88
77431;BME280;66498;48.564;19.272;2023-06-24T05:21:22;97691.41;;;19.72;89.98
77431;BME280;66498;48.564;19.272;2023-06-24T05:23:47;97690.16;;;19.94;88.11
77431;BME280;66498;48.564;19.272;2023-06-24T05:26:13;97686.16;;;19.96;88.66
77431;BME280;66498;48.564;19.272;2023-06-24T05:28:39;97696.09;;;19.85;86.30
77431;BME280;66498;48.564;19.272;2023-06-24T05:31:05;97690.34;;;20.42;79.65
77431;BME280;66498;48.564;19.272;2023-06-24T05:33:30;97691.44;;;20.36;83.19
77431;BME280;66498;48.564;19.272;2023-06-24T05:35:56;97696.41;;;20.18;85.73
77431;BME280;66498;48.564;19.272;2023-06-24T05:38:21;97692.88;;;20.23;86.07
77431;BME280;66498;48.564;19.272;2023-06-24T05:40:47;97700.00;;;19.98;86.53
77431;BME280;66498;48.564;19.272;2023-06-24T05:43:12;97699.16;;;20.08;86.86
77431;BME280;66498;48.564;19.272;2023-06-24T05:45:38;97698.81;;;20.15;84.06
77431;BME280;66498;48.564;19.272;2023-06-24T05:48:04;97700.88;;;20.23;85.21
77431;BME280;66498;48.564;19.272;2023-06-24T05:50:30;97705.00;;;20.39;85.99
77431;BME280;66498;48.564;19.272;2023-06-24T05:52:55;97706.00;;;20.14;84.90
77431;BME280;66498;48.564;19.272;2023-06-24T05:55:21;97714.50;;;20.21;83.97
77431;BME280;66498;48.564;19.272;2023-06-24T05:57:46;97722.13;;;19.99;82.28
77431;BME280;66498;48.564;19.272;2023-06-24T06:00:13;97725.56;;;19.99;85.20
77431;BME280;66498;48.564;19.272;2023-06-24T06:02:39;97724.34;;;20.21;88.73
77431;BME280;66498;48.564;19.272;2023-06-24T06:05:04;97727.44;;;20.33;86.23
77431;BME280;66498;48.564;19.272;2023-06-24T06:07:30;97733.06;;;20.31;85.28
77431;BME280;66498;48.564;19.272;2023-06-24T06:09:55;97730.91;;;20.33;85.13
77431;BME280;66498;48.564;19.272;2023-06-24T06:12:21;97731.22;;;20.27;83.82
77431;BME280;66498;48.564;19.272;2023-06-24T06:14:46;97739.78;;;20.24;84.93
77431;BME280;66498;48.564;19.272;2023-06-24T06:17:15;97743.22;;;20.29;85.35
77431;BME280;66498;48.564;19.272;2023-06-24T06:19:40;97744.06;;;20.25;83.93
77431;BME280;66498;48.564;19.272;2023-06-24T06:22:07;97745.50;;;20.41;84.72
77431;BME280;66498;48.564;19.272;2023-06-24T06:24:33;97756.38;;;20.50;84.93
77431;BME280;66498;48.564;19.272;2023-06-24T06:26:59;97748.88;;;20.57;83.75
77431;BME280;66498;48.564;19.272;2023-06-24T06:29:24;97750.34;;;20.68;84.61
77431;BME280;66498;48.564;19.272;2023-06-24T06:31:50;97753.31;;;20.96;84.40
77431;BME280;66498;48.564;19.272;2023-06-24T06:34:18;97754.25;;;20.81;81.72
77431;BME280;66498;48.564;19.272;2023-06-24T06:36:43;97765.78;;;21.00;82.67
77431;BME280;66498;48.564;19.272;2023-06-24T06:39:09;97765.50;;;21.02;81.54
77431;BME280;66498;48.564;19.272;2023-06-24T06:41:35;97766.78;;;20.81;82.58
77431;BME280;66498;48.564;19.272;2023-06-24T06:44:00;97768.03;;;20.88;79.66
77431;BME280;66498;48.564;19.272;2023-06-24T06:46:26;97770.84;;;21.02;79.78
77431;BME280;66498;48.564;19.272;2023-06-24T06:48:52;97769.91;;;21.17;76.77
77431;BME280;66498;48.564;19.272;2023-06-24T06:51:17;97770.91;;;20.97;76.89
77431;BME280;66498;48.564;19.272;2023-06-24T06:53:46;97765.28;;;21.22;75.44
77431;BME280;66498;48.564;19.272;2023-06-24T06:56:38;97772.47;;;21.51;79.70
77431;BME280;66498;48.564;19.272;2023-06-24T06:59:04;97776.41;;;21.30;79.80
77431;BME280;66498;48.564;19.272;2023-06-24T07:01:30;97777.00;;;21.26;79.46
77431;BME280;66498;48.564;19.272;2023-06-24T07:03:56;97776.25;;;21.21;79.28
77431;BME280;66498;48.564;19.272;2023-06-24T07:06:21;97777.28;;;21.49;78.71
77431;BME280;66498;48.564;19.272;2023-06-24T07:08:47;97768.88;;;22.36;75.20
77431;BME280;66498;48.564;19.272;2023-06-24T07:11:12;97765.59;;;23.19;69.99
77431;BME280;66498;48.564;19.272;2023-06-24T07:13:38;97775.22;;;23.61;65.50
77431;BME280;66498;48.564;19.272;2023-06-24T07:16:03;97758.41;;;23.83;65.92
77431;BME280;66498;48.564;19.272;2023-06-24T07:18:29;97764.38;;;23.66;65.38
77431;BME280;66498;48.564;19.272;2023-06-24T07:20:56;97774.56;;;23.92;64.38
77431;BME280;66498;48.564;19.272;2023-06-24T07:23:25;97763.34;;;23.90;64.32
77431;BME280;66498;48.564;19.272;2023-06-24T07:25:50;97773.75;;;23.91;66.04
77431;BME280;66498;48.564;19.272;2023-06-24T07:28:16;97770.88;;;24.24;63.83
77431;BME280;66498;48.564;19.272;2023-06-24T07:30:42;97770.16;;;24.32;64.98
77431;BME280;66498;48.564;19.272;2023-06-24T07:33:07;97777.28;;;23.50;67.34
77431;BME280;66498;48.564;19.272;2023-06-24T07:35:33;97775.97;;;24.12;64.24
77431;BME280;66498;48.564;19.272;2023-06-24T07:38:00;97773.03;;;23.22;65.65
77431;BME280;66498;48.564;19.272;2023-06-24T07:40:25;97775.41;;;23.78;65.97
77431;BME280;66498;48.564;19.272;2023-06-24T07:42:51;97785.34;;;23.78;64.20
77431;BME280;66498;48.564;19.272;2023-06-24T07:45:17;97786.41;;;23.35;63.06
77431;BME280;66498;48.564;19.272;2023-06-24T07:47:42;97782.75;;;23.45;63.87
77431;BME280;66498;48.564;19.272;2023-06-24T07:50:08;97783.97;;;24.03;63.19
77431;BME280;66498;48.564;19.272;2023-06-24T07:52:36;97773.75;;;23.91;62.73
77431;BME280;66498;48.564;19.272;2023-06-24T07:55:02;97786.22;;;24.46;63.11
77431;BME280;66498;48.564;19.272;2023-06-24T07:57:29;97782.28;;;24.29;60.25
77431;BME280;66498;48.564;19.272;2023-06-24T07:59:54;97787.13;;;24.41;59.90
77431;BME280;66498;48.564;19.272;2023-06-24T08:02:20;97783.56;;;24.10;61.44
77431;BME280;66498;48.564;19.272;2023-06-24T08:04:50;97780.75;;;24.82;62.21
77431;BME280;66498;48.564;19.272;2023-06-24T08:07:16;97777.94;;;25.18;61.02
77431;BME280;66498;48.564;19.272;2023-06-24T08:09:42;97777.63;;;25.20;61.59
77431;BME280;66498;48.564;19.272;2023-06-24T08:12:08;97788.09;;;24.68;63.70
77431;BME280;66498;48.564;19.272;2023-06-24T08:14:34;97797.81;;;25.48;58.28
77431;BME280;66498;48.564;19.272;2023-06-24T08:17:00;97788.13;;;25.96;56.29
77431;BME280;66498;48.564;19.272;2023-06-24T08:19:26;97789.81;;;25.17;60.97
77431;BME280;66498;48.564;19.272;2023-06-24T08:21:52;97790.44;;;24.92;60.12
77431;BME280;66498;48.564;19.272;2023-06-24T08:24:18;97794.69;;;24.62;61.95
77431;BME280;66498;48.564;19.272;2023-06-24T08:26:44;97795.44;;;24.53;61.45
77431;BME280;66498;48.564;19.272;2023-06-24T08:29:09;97796.31;;;24.71;59.73
77431;BME280;66498;48.564;19.272;2023-06-24T08:31:35;97788.63;;;25.10;57.58
77431;BME280;66498;48.564;19.272;2023-06-24T08:34:01;97784.69;;;25.56;58.52
77431;BME280;66498;48.564;19.272;2023-06-24T08:36:28;97781.63;;;25.88;55.74
77431;BME280;66498;48.564;19.272;2023-06-24T08:38:54;97782.66;;;25.61;56.71
77431;BME280;66498;48.564;19.272;2023-06-24T08:41:20;97782.19;;;24.57;60.91
77431;BME280;66498;48.564;19.272;2023-06-24T08:43:49;97774.06;;;24.26;59.95
77431;BME280;66498;48.564;19.272;2023-06-24T08:46:16;97778.66;;;24.48;61.84
77431;BME280;66498;48.564;19.272;2023-06-24T08:48:43;97779.69;;;24.61;61.70
77431;BME280;66498;48.564;19.272;2023-06-24T08:51:11;97773.00;;;24.81;58.64
77431;BME280;66498;48.564;19.272;2023-06-24T08:53:39;97781.91;;;24.90;58.69
77431;BME280;66498;48.564;19.272;2023-06-24T08:56:08;97779.56;;;25.28;58.29
77431;BME280;66498;48.564;19.272;2023-06-24T08:58:34;97784.94;;;25.94;59.68
77431;BME280;66498;48.564;19.272;2023-06-24T09:01:03;97787.34;;;25.95;55.58
77431;BME280;66498;48.564;19.272;2023-06-24T09:03:29;97784.00;;;25.90;57.73
77431;BME280;66498;48.564;19.272;2023-06-24T09:05:55;97785.44;;;25.96;57.13
77431;BME280;66498;48.564;19.272;2023-06-24T09:08:21;97788.69;;;25.76;58.19
77431;BME280;66498;48.564;19.272;2023-06-24T09:10:53;97785.22;;;25.18;59.52
77431;BME280;66498;48.564;19.272;2023-06-24T09:13:33;97790.03;;;24.31;62.30
77431;BME280;66498;48.564;19.272;2023-06-24T09:16:00;97789.19;;;23.86;64.36
77431;BME280;66498;48.564;19.272;2023-06-24T09:18:35;97782.66;;;23.78;64.23
77431;BME280;66498;48.564;19.272;2023-06-24T09:21:01;97787.56;;;23.98;64.00
77431;BME280;66498;48.564;19.272;2023-06-24T09:23:27;97790.91;;;24.04;62.44
77431;BME280;66498;48.564;19.272;2023-06-24T09:25:56;97787.84;;;23.97;61.14
77431;BME280;66498;48.564;19.272;2023-06-24T09:28:29;97785.56;;;24.40;61.17
77431;BME280;66498;48.564;19.272;2023-06-24T09:31:10;97774.94;;;24.89;58.23
77431;BME280;66498;48.564;19.272;2023-06-24T09:33:35;97781.66;;;25.40;58.14
77431;BME280;66498;48.564;19.272;2023-06-24T09:36:04;97787.97;;;25.04;57.62
77431;BME280;66498;48.564;19.272;2023-06-24T09:46:47;97781.97;;;26.56;55.86
77431;BME280;66498;48.564;19.272;2023-06-24T09:49:15;97779.59;;;26.03;57.94
77431;BME280;66498;48.564;19.272;2023-06-24T09:51:46;97783.88;;;25.38;60.53
77431;BME280;66498;48.564;19.272;2023-06-24T09:54:13;97780.19;;;24.94;59.30
77431;BME280;66498;48.564;19.272;2023-06-24T09:56:43;97784.16;;;25.28;57.69
77431;BME280;66498;48.564;19.272;2023-06-24T09:59:12;97780.94;;;25.65;61.01
77431;BME280;66498;48.564;19.272;2023-06-24T10:01:42;97788.59;;;25.32;58.13
77431;BME280;66498;48.564;19.272;2023-06-24T10:04:15;97786.53;;;24.98;61.93
77431;BME280;66498;48.564;19.272;2023-06-24T10:06:41;97781.66;;;25.00;59.06
77431;BME280;66498;48.564;19.272;2023-06-24T10:09:08;97781.94;;;24.98;59.81
77431;BME280;66498;48.564;19.272;2023-06-24T10:11:34;97777.50;;;25.82;56.83
77431;BME280;66498;48.564;19.272;2023-06-24T10:14:00;97778.31;;;25.83;55.52
77431;BME280;66498;48.564;19.272;2023-06-24T10:16:26;97784.94;;;25.94;57.77
77431;BME280;66498;48.564;19.272;2023-06-24T10:18:59;97783.72;;;25.34;59.48
77431;BME280;66498;48.564;19.272;2023-06-24T10:21:45;97772.22;;;25.51;59.33
77431;BME280;66498;48.564;19.272;2023-06-24T10:24:12;97780.59;;;25.58;60.45
77431;BME280;66498;48.564;19.272;2023-06-24T10:26:39;97775.53;;;25.57;57.31
77431;BME280;66498;48.564;19.272;2023-06-24T10:39:40;97774.94;;;24.89;64.91
77431;BME280;66498;48.564;19.272;2023-06-24T10:44:48;97769.81;;;24.70;65.78
77431;BME280;66498;48.564;19.272;2023-06-24T10:47:13;97766.25;;;25.14;67.43
77431;BME280;66498;48.564;19.272;2023-06-24T10:49:39;97762.50;;;25.99;66.17
77431;BME280;66498;48.564;19.272;2023-06-24T10:52:07;97764.06;;;26.34;64.04
77431;BME280;66498;48.564;19.272;2023-06-24T10:54:35;97762.63;;;26.28;62.50
77431;BME280;66498;48.564;19.272;2023-06-24T10:57:00;97765.28;;;26.63;62.07
77431;BME280;66498;48.564;19.272;2023-06-24T10:59:26;97757.97;;;26.72;61.70
77431;BME280;66498;48.564;19.272;2023-06-24T11:01:55;97766.66;;;26.86;60.79
77431;BME280;66498;48.564;19.272;2023-06-24T11:04:20;97772.03;;;26.86;62.32
77431;BME280;66498;48.564;19.272;2023-06-24T11:07:02;97756.22;;;26.85;60.96
77431;BME280;66498;48.564;19.272;2023-06-24T11:09:28;97758.00;;;27.19;59.25
77431;BME280;66498;48.564;19.272;2023-06-24T11:11:53;97750.88;;;27.44;57.85
77431;BME280;66498;48.564;19.272;2023-06-24T11:14:22;97749.25;;;27.81;57.46
77431;BME280;66498;48.564;19.272;2023-06-24T11:16:49;97737.78;;;27.85;58.01
77431;BME280;66498;48.564;19.272;2023-06-24T11:19:15;97743.28;;;27.67;53.85
77431;BME280;66498;48.564;19.272;2023-06-24T11:21:41;97728.13;;;27.83;57.94
77431;BME280;66498;48.564;19.272;2023-06-24T11:24:06;97731.19;;;27.82;55.84
77431;BME280;66498;48.564;19.272;2023-06-24T11:26:32;97728.72;;;28.10;58.28
77431;BME280;66498;48.564;19.272;2023-06-24T11:28:58;97731.28;;;28.06;58.50
77431;BME280;66498;48.564;19.272;2023-06-24T11:31:27;97720.91;;;27.46;58.25
77431;BME280;66498;48.564;19.272;2023-06-24T11:33:53;97719.63;;;27.73;55.49
77431;BME280;66498;48.564;19.272;2023-06-24T11:36:19;97719.00;;;27.76;57.57
77431;BME280;66498;48.564;19.272;2023-06-24T11:38:48;97725.47;;;27.54;56.84
77431;BME280;66498;48.564;19.272;2023-06-24T11:41:14;97716.06;;;26.54;61.61
77431;BME280;66498;48.564;19.272;2023-06-24T11:43:44;97724.19;;;25.84;61.61
77431;BME280;66498;48.564;19.272;2023-06-24T11:46:20;97715.66;;;25.91;62.81
77431;BME280;66498;48.564;19.272;2023-06-24T11:48:45;97714.69;;;26.13;61.19
77431;BME280;66498;48.564;19.272;2023-06-24T11:51:14;97713.59;;;25.88;62.54
77431;BME280;66498;48.564;19.272;2023-06-24T11:53:44;97717.38;;;26.86;61.94
77431;BME280;66498;48.564;19.272;2023-06-24T11:56:11;97708.78;;;27.01;58.31
77431;BME280;66498;48.564;19.272;2023-06-24T11:58:36;97708.38;;;27.20;57.66
77431;BME280;66498;48.564;19.272;2023-06-24T12:01:02;97708.44;;;27.62;57.44
77431;BME280;66498;48.564;19.272;2023-06-24T12:03:32;97704.59;;;27.93;57.57
77431;BME280;66498;48.564;19.272;2023-06-24T12:05:59;97710.94;;;27.67;57.51
77431;BME280;66498;48.564;19.272;2023-06-24T12:08:25;97706.59;;;27.75;53.54
77431;BME280;66498;48.564;19.272;2023-06-24T12:10:51;97701.66;;;27.98;59.52
77431;BME280;66498;48.564;19.272;2023-06-24T12:13:19;97693.44;;;27.73;57.34
77431;BME280;66498;48.564;19.272;2023-06-24T12:15:44;97694.09;;;27.91;55.07
77431;BME280;66498;48.564;19.272;2023-06-24T12:18:12;97694.94;;;28.04;55.66
77431;BME280;66498;48.564;19.272;2023-06-24T12:20:38;97690.97;;;28.22;53.39
77431;BME280;66498;48.564;19.272;2023-06-24T12:23:03;97685.59;;;28.35;53.04
77431;BME280;66498;48.564;19.272;2023-06-24T12:25:29;97685.66;;;28.59;55.04
77431;BME280;66498;48.564;19.272;2023-06-24T12:27:55;97694.13;;;28.58;54.66
77431;BME280;66498;48.564;19.272;2023-06-24T12:30:21;97694.22;;;27.32;55.39
77431;BME280;66498;48.564;19.272;2023-06-24T12:32:49;97691.34;;;26.99;57.52
77431;BME280;66498;48.564;19.272;2023-06-24T12:35:15;97681.81;;;26.72;56.08
77431;BME280;66498;48.564;19.272;2023-06-24T12:37:40;97685.84;;;26.39;56.29
77431;BME280;66498;48.564;19.272;2023-06-24T12:40:07;97686.19;;;26.21;56.01
77431;BME280;66498;48.564;19.272;2023-06-24T12:42:32;97681.69;;;27.27;53.88
77431;BME280;66498;48.564;19.272;2023-06-24T12:44:59;97685.00;;;27.33;53.71
77431;BME280;66498;48.564;19.272;2023-06-24T12:47:24;97683.22;;;27.37;55.13
77431;BME280;66498;48.564;19.272;2023-06-24T12:49:50;97686.25;;;27.06;54.32
77431;BME280;66498;48.564;19.272;2023-06-24T12:52:16;97687.25;;;26.54;56.69
77431;BME280;66498;48.564;19.272;2023-06-24T12:54:42;97695.06;;;26.21;58.13
77431;BME280;66498;48.564;19.272;2023-06-24T12:57:07;97686.69;;;26.23;57.94
77431;BME280;66498;48.564;19.272;2023-06-24T12:59:33;97687.63;;;26.18;55.72
77431;BME280;66498;48.564;19.272;2023-06-24T13:01:58;97684.31;;;26.04;58.63
77431;BME280;66498;48.564;19.272;2023-06-24T13:04:24;97693.31;;;25.73;61.40
77431;BME280;66498;48.564;19.272;2023-06-24T13:06:52;97689.84;;;25.55;59.48
77431;BME280;66498;48.564;19.272;2023-06-24T13:09:18;97691.28;;;25.61;57.69
77431;BME280;66498;48.564;19.272;2023-06-24T13:11:44;97685.09;;;26.13;59.57
77431;BME280;66498;48.564;19.272;2023-06-24T13:14:10;97685.44;;;25.94;61.15
77431;BME280;66498;48.564;19.272;2023-06-24T13:16:36;97687.13;;;25.38;57.73